sensor_id;sensor_type;location;lat;lon;timestamp;pressure;altitude;pressure_sealevel;temperature;humidity
41862;BME280;27537;57.134;-2.136;2022-12-07T00:01:22;102048.44;;;3.90;100.00
41862;BME280;27537;57.134;-2.136;2022-12-07T00:03:52;102044.78;;;3.73;100.00
41862;BME280;27537;57.134;-2.136;2022-12-07T00:06:20;102033.59;;;3.77;100.00
41862;BME280;27537;57.134;-2.136;2022-12-07T00:08:47;102051.91;;;3.91;100.00
41862;BME280;27537;57.134;-2.136;2022-12-07T00:11:17;102041.44;;;3.82;100.00
41862;BME280;27537;57.134;-2.136;2022-12-07T00:13:45;102044.22;;;4.00;100.00
41862;BME280;27537;57.134;-2.136;2022-12-07T00:16:14;102049.28;;;3.89;100.00
41862;BME280;27537;57.134;-2.136;2022-12-07T00:18:41;102032.81;;;3.84;100.00
41862;BME280;27537;57.134;-2.136;2022-12-07T00:23:37;102044.78;;;3.73;100.00
41862;BME280;27537;57.134;-2.136;2022-12-07T00:26:16;102044.78;;;3.71;100.00
41862;BME280;27537;57.134;-2.136;2022-12-07T00:28:51;102031.06;;;3.80;100.00
41862;BME280;27537;57.134;-2.136;2022-12-07T00:31:19;102005.00;;;3.68;100.00
41862;BME280;27537;57.134;-2.136;2022-12-07T00:33:46;101982.97;;;3.29;100.00
41862;BME280;27537;57.134;-2.136;2022-12-07T00:36:16;101985.88;;;3.55;100.00
41862;BME280;27537;57.134;-2.136;2022-12-07T00:38:51;102020.63;;;3.74;100.00
41862;BME280;27537;57.134;-2.136;2022-12-07T00:41:20;102019.91;;;3.87;100.00
41862;BME280;27537;57.134;-2.136;2022-12-07T00:43:48;101970.31;;;3.53;100.00
41862;BME280;27537;57.134;-2.136;2022-12-07T00:46:16;101981.53;;;3.54;100.00
41862;BME280;27537;57.134;-2.136;2022-12-07T00:48:42;102018.75;;;3.60;100.00
41862;BME280;27537;57.134;-2.136;2022-12-07T00:51:12;102023.25;;;3.78;100.00
41862;BME280;27537;57.134;-2.136;2022-12-07T00:53:39;102025.84;;;3.77;100.00
41862;BME280;27537;57.134;-2.136;2022-12-07T00:56:28;101980.63;;;3.49;100.00
41862;BME280;27537;57.134;-2.136;2022-12-07T00:59:00;102017.94;;;3.63;100.00
41862;BME280;27537;57.134;-2.136;2022-12-07T01:01:30;102015.47;;;3.77;100.00
41862;BME280;27537;57.134;-2.136;2022-12-07T01:03:57;101978.25;;;3.69;100.00
41862;BME280;27537;57.134;-2.136;2022-12-07T01:06:24;102004.41;;;3.90;100.00
41862;BME280;27537;57.134;-2.136;2022-12-07T01:08:52;101978.28;;;3.70;100.00
41862;BME280;27537;57.134;-2.136;2022-12-07T01:11:21;102010.91;;;3.56;100.00
41862;BME280;27537;57.134;-2.136;2022-12-07T01:13:52;102006.78;;;3.70;100.00
41862;BME280;27537;57.134;-2.136;2022-12-07T01:16:20;102013.69;;;3.71;100.00
41862;BME280;27537;57.134;-2.136;2022-12-07T01:18:49;102002.56;;;3.82;100.00
41862;BME280;27537;57.134;-2.136;2022-12-07T01:21:19;101989.72;;;3.92;100.00
41862;BME280;27537;57.134;-2.136;2022-12-07T01:23:47;101985.50;;;4.01;100.00
41862;BME280;27537;57.134;-2.136;2022-12-07T01:26:17;101980.34;;;4.02;100.00
41862;BME280;27537;57.134;-2.136;2022-12-07T01:28:45;101962.09;;;3.91;100.00
41862;BME280;27537;57.134;-2.136;2022-12-07T01:31:14;101974.91;;;3.77;100.00
41862;BME280;27537;57.134;-2.136;2022-12-07T01:33:43;101969.84;;;3.88;100.00
41862;BME280;27537;57.134;-2.136;2022-12-07T01:38:44;101962.91;;;3.87;100.00
41862;BME280;27537;57.134;-2.136;2022-12-07T01:41:12;101953.44;;;3.91;100.00
41862;BME280;27537;57.134;-2.136;2022-12-07T01:49:42;101957.84;;;3.99;100.00
41862;BME280;27537;57.134;-2.136;2022-12-07T01:52:18;101947.47;;;3.99;100.00
41862;BME280;27537;57.134;-2.136;2022-12-07T01:54:47;101966.53;;;4.05;100.00
41862;BME280;27537;57.134;-2.136;2022-12-07T01:57:16;101969.88;;;3.91;100.00
41862;BME280;27537;57.134;-2.136;2022-12-07T01:59:45;101959.50;;;3.91;100.00
41862;BME280;27537;57.134;-2.136;2022-12-07T02:02:19;101950.16;;;4.12;100.00
41862;BME280;27537;57.134;-2.136;2022-12-07T02:04:46;101945.00;;;4.13;100.00
41862;BME280;27537;57.134;-2.136;2022-12-07T02:07:14;101957.00;;;4.02;100.00
41862;BME280;27537;57.134;-2.136;2022-12-07T02:09:41;101938.06;;;4.12;100.00
41862;BME280;27537;57.134;-2.136;2022-12-07T02:12:08;101937.09;;;3.99;100.00
41862;BME280;27537;57.134;-2.136;2022-12-07T02:14:35;101945.63;;;3.88;100.00
41862;BME280;27537;57.134;-2.136;2022-12-07T02:17:18;101945.88;;;4.15;100.00
41862;BME280;27537;57.134;-2.136;2022-12-07T02:30:56;101924.41;;;4.33;100.00
41862;BME280;27537;57.134;-2.136;2022-12-07T02:33:33;101920.97;;;4.34;100.00
41862;BME280;27537;57.134;-2.136;2022-12-07T02:36:10;101898.38;;;4.16;100.00
41862;BME280;27537;57.134;-2.136;2022-12-07T02:38:48;101928.75;;;4.39;100.00
41862;BME280;27537;57.134;-2.136;2022-12-07T02:41:22;101925.25;;;4.29;100.00
41862;BME280;27537;57.134;-2.136;2022-12-07T02:43:54;101907.81;;;4.10;100.00
41862;BME280;27537;57.134;-2.136;2022-12-07T02:46:25;101907.81;;;4.10;100.00
41862;BME280;27537;57.134;-2.136;2022-12-07T02:48:54;101908.84;;;4.33;100.00
41862;BME280;27537;57.134;-2.136;2022-12-07T02:51:22;101920.22;;;4.52;100.00
41862;BME280;27537;57.134;-2.136;2022-12-07T02:53:49;101889.72;;;4.13;100.00
41862;BME280;27537;57.134;-2.136;2022-12-07T02:56:27;101922.53;;;4.11;100.00
41862;BME280;27537;57.134;-2.136;2022-12-07T03:04:38;101905.41;;;4.39;100.00
41862;BME280;27537;57.134;-2.136;2022-12-07T03:07:30;101914.16;;;4.49;100.00
41862;BME280;27537;57.134;-2.136;2022-12-07T03:10:07;101911.44;;;4.32;100.00
41862;BME280;27537;57.134;-2.136;2022-12-07T03:12:45;101901.16;;;4.43;100.00
41862;BME280;27537;57.134;-2.136;2022-12-07T03:15:18;101873.44;;;4.34;100.00
41862;BME280;27537;57.134;-2.136;2022-12-07T03:17:49;101912.41;;;4.45;100.00
41862;BME280;27537;57.134;-2.136;2022-12-07T03:20:20;101889.03;;;4.42;100.00
41862;BME280;27537;57.134;-2.136;2022-12-07T03:22:49;101859.56;;;4.32;100.00
41862;BME280;27537;57.134;-2.136;2022-12-07T03:25:18;101927.16;;;4.58;100.00
41862;BME280;27537;57.134;-2.136;2022-12-07T03:27:49;101922.81;;;4.51;100.00
41862;BME280;27537;57.134;-2.136;2022-12-07T03:30:28;101927.22;;;4.63;100.00
41862;BME280;27537;57.134;-2.136;2022-12-07T03:33:07;101923.53;;;4.27;100.00
41862;BME280;27537;57.134;-2.136;2022-12-07T03:35:38;101915.59;;;4.10;100.00
41862;BME280;27537;57.134;-2.136;2022-12-07T03:38:22;101921.78;;;4.27;100.00
41862;BME280;27537;57.134;-2.136;2022-12-07T03:41:03;101885.91;;;3.71;100.00
41862;BME280;27537;57.134;-2.136;2022-12-07T03:43:31;101918.19;;;4.11;100.00
41862;BME280;27537;57.134;-2.136;2022-12-07T03:46:33;101928.59;;;4.14;100.00
41862;BME280;27537;57.134;-2.136;2022-12-07T03:49:14;101924.53;;;4.50;100.00
41862;BME280;27537;57.134;-2.136;2022-12-07T03:51:44;101940.84;;;4.34;100.00
41862;BME280;27537;57.134;-2.136;2022-12-07T03:54:20;101945.16;;;4.30;100.00
41862;BME280;27537;57.134;-2.136;2022-12-07T03:56:49;101920.72;;;4.01;100.00
41862;BME280;27537;57.134;-2.136;2022-12-07T03:59:17;101896.72;;;4.28;100.00
41862;BME280;27537;57.134;-2.136;2022-12-07T04:01:52;101896.81;;;4.43;100.00
41862;BME280;27537;57.134;-2.136;2022-12-07T04:04:21;101878.56;;;4.26;100.00
41862;BME280;27537;57.134;-2.136;2022-12-07T04:06:48;101874.25;;;4.28;100.00
41862;BME280;27537;57.134;-2.136;2022-12-07T04:09:15;101862.09;;;4.21;100.00
41862;BME280;27537;57.134;-2.136;2022-12-07T04:11:43;101871.69;;;4.31;100.00
41862;BME280;27537;57.134;-2.136;2022-12-07T04:14:09;101847.34;;;4.08;100.00
41862;BME280;27537;57.134;-2.136;2022-12-07T04:16:49;101879.44;;;4.25;100.00
41862;BME280;27537;57.134;-2.136;2022-12-07T04:19:18;101873.44;;;4.32;100.00
41862;BME280;27537;57.134;-2.136;2022-12-07T04:21:45;101877.69;;;4.24;100.00
41862;BME280;27537;57.134;-2.136;2022-12-07T04:24:13;101825.44;;;3.72;100.00
41862;BME280;27537;57.134;-2.136;2022-12-07T04:26:41;101876.66;;;4.01;100.00
41862;BME280;27537;57.134;-2.136;2022-12-07T04:29:09;101882.72;;;4.03;100.00
41862;BME280;27537;57.134;-2.136;2022-12-07T04:31:36;101869.81;;;4.13;100.00
41862;BME280;27537;57.134;-2.136;2022-12-07T04:34:04;101859.44;;;4.07;100.00
41862;BME280;27537;57.134;-2.136;2022-12-07T04:36:32;101850.63;;;3.88;100.00
41862;BME280;27537;57.134;-2.136;2022-12-07T04:38:59;101843.69;;;3.81;100.00
41862;BME280;27537;57.134;-2.136;2022-12-07T04:41:26;101846.19;;;3.70;100.00
41862;BME280;27537;57.134;-2.136;2022-12-07T04:43:59;101848.09;;;3.96;100.00
41862;BME280;27537;57.134;-2.136;2022-12-07T04:46:28;101861.88;;;3.90;100.00
41862;BME280;27537;57.134;-2.136;2022-12-07T04:48:56;101853.25;;;3.93;100.00
41862;BME280;27537;57.134;-2.136;2022-12-07T04:51:25;101839.19;;;3.65;100.00
41862;BME280;27537;57.134;-2.136;2022-12-07T04:53:53;101841.94;;;3.80;100.00
41862;BME280;27537;57.134;-2.136;2022-12-07T04:56:21;101835.09;;;3.88;100.00
41862;BME280;27537;57.134;-2.136;2022-12-07T04:58:49;101805.41;;;3.49;100.00
41862;BME280;27537;57.134;-2.136;2022-12-07T05:01:16;101837.69;;;3.90;100.00
41862;BME280;27537;57.134;-2.136;2022-12-07T05:03:43;101830.88;;;4.03;100.00
41862;BME280;27537;57.134;-2.136;2022-12-07T05:06:11;101845.66;;;4.19;100.00
41862;BME280;27537;57.134;-2.136;2022-12-07T05:08:39;101836.03;;;4.01;100.00
41862;BME280;27537;57.134;-2.136;2022-12-07T05:11:07;101833.44;;;3.95;100.00
41862;BME280;27537;57.134;-2.136;2022-12-07T05:13:35;101837.50;;;3.68;100.00
41862;BME280;27537;57.134;-2.136;2022-12-07T05:16:02;101833.44;;;3.95;100.00
41862;BME280;27537;57.134;-2.136;2022-12-07T05:18:29;101793.50;;;3.71;100.00
41862;BME280;27537;57.134;-2.136;2022-12-07T05:20:56;101789.25;;;3.78;100.00
41862;BME280;27537;57.134;-2.136;2022-12-07T05:23:23;101788.28;;;3.68;100.00
41862;BME280;27537;57.134;-2.136;2022-12-07T05:25:50;101833.50;;;4.06;100.00
41862;BME280;27537;57.134;-2.136;2022-12-07T05:28:17;101824.72;;;3.87;100.00
41862;BME280;27537;57.134;-2.136;2022-12-07T05:30:43;101793.38;;;3.57;100.00
41862;BME280;27537;57.134;-2.136;2022-12-07T05:33:10;101803.13;;;3.85;100.00
41862;BME280;27537;57.134;-2.136;2022-12-07T05:35:37;101823.06;;;3.98;100.00
41862;BME280;27537;57.134;-2.136;2022-12-07T05:38:04;101767.66;;;3.76;100.00
41862;BME280;27537;57.134;-2.136;2022-12-07T05:40:31;101758.31;;;4.01;100.00
41862;BME280;27537;57.134;-2.136;2022-12-07T05:42:57;101806.72;;;4.07;100.00
41862;BME280;27537;57.134;-2.136;2022-12-07T05:45:29;101790.25;;;3.97;100.00
41862;BME280;27537;57.134;-2.136;2022-12-07T05:47:56;101797.16;;;4.01;100.00
41862;BME280;27537;57.134;-2.136;2022-12-07T05:50:23;101812.69;;;3.95;100.00
41862;BME280;27537;57.134;-2.136;2022-12-07T05:52:50;101807.56;;;4.03;100.00
41862;BME280;27537;57.134;-2.136;2022-12-07T05:55:17;101805.84;;;4.05;100.00
41862;BME280;27537;57.134;-2.136;2022-12-07T05:57:43;101795.41;;;3.94;100.00
41862;BME280;27537;57.134;-2.136;2022-12-07T06:00:30;101814.56;;;4.14;100.00
41862;BME280;27537;57.134;-2.136;2022-12-07T06:02:57;101787.72;;;4.08;100.00
41862;BME280;27537;57.134;-2.136;2022-12-07T06:05:24;101794.69;;;4.18;100.00
41862;BME280;27537;57.134;-2.136;2022-12-07T06:07:51;101758.25;;;3.93;100.00
41862;BME280;27537;57.134;-2.136;2022-12-07T06:10:18;101743.59;;;4.02;100.00
41862;BME280;27537;57.134;-2.136;2022-12-07T06:12:45;101734.88;;;3.84;100.00
41862;BME280;27537;57.134;-2.136;2022-12-07T06:15:12;101755.72;;;4.03;100.00
41862;BME280;27537;57.134;-2.136;2022-12-07T06:17:39;101773.09;;;4.21;100.00
41862;BME280;27537;57.134;-2.136;2022-12-07T06:20:06;101778.25;;;4.17;100.00
41862;BME280;27537;57.134;-2.136;2022-12-07T06:22:33;101778.25;;;4.13;100.00
41862;BME280;27537;57.134;-2.136;2022-12-07T06:25:00;101767.81;;;4.07;100.00
41862;BME280;27537;57.134;-2.136;2022-12-07T06:27:34;101762.63;;;4.01;100.00
41862;BME280;27537;57.134;-2.136;2022-12-07T06:30:02;101760.88;;;3.99;100.00
41862;BME280;27537;57.134;-2.136;2022-12-07T06:32:33;101767.03;;;4.17;100.00
41862;BME280;27537;57.134;-2.136;2022-12-07T06:35:00;101781.72;;;4.21;100.00
41862;BME280;27537;57.134;-2.136;2022-12-07T06:37:27;101754.84;;;4.01;100.00
41862;BME280;27537;57.134;-2.136;2022-12-07T06:39:54;101764.41;;;4.14;100.00
41862;BME280;27537;57.134;-2.136;2022-12-07T06:42:21;101762.63;;;4.05;100.00
41862;BME280;27537;57.134;-2.136;2022-12-07T06:44:48;101769.63;;;4.17;100.00
41862;BME280;27537;57.134;-2.136;2022-12-07T06:47:15;101745.19;;;3.78;100.00
41862;BME280;27537;57.134;-2.136;2022-12-07T06:50:02;101766.97;;;4.06;100.00
41862;BME280;27537;57.134;-2.136;2022-12-07T06:52:30;101785.88;;;3.88;100.00
41862;BME280;27537;57.134;-2.136;2022-12-07T06:54:57;101772.03;;;3.91;100.00
41862;BME280;27537;57.134;-2.136;2022-12-07T06:57:25;101755.66;;;3.96;100.00
41862;BME280;27537;57.134;-2.136;2022-12-07T06:59:52;101755.75;;;4.09;100.00
41862;BME280;27537;57.134;-2.136;2022-12-07T07:02:19;101742.72;;;3.99;100.00
41862;BME280;27537;57.134;-2.136;2022-12-07T07:04:46;101724.59;;;3.95;100.00
41862;BME280;27537;57.134;-2.136;2022-12-07T07:07:12;101735.03;;;4.12;100.00
41862;BME280;27537;57.134;-2.136;2022-12-07T07:09:39;101728.09;;;4.08;100.00
41862;BME280;27537;57.134;-2.136;2022-12-07T07:12:06;101748.00;;;4.12;100.00
41862;BME280;27537;57.134;-2.136;2022-12-07T07:14:32;101762.59;;;3.97;100.00
41862;BME280;27537;57.134;-2.136;2022-12-07T07:16:59;101773.91;;;4.12;100.00
41862;BME280;27537;57.134;-2.136;2022-12-07T07:19:26;101785.97;;;4.07;100.00
41862;BME280;27537;57.134;-2.136;2022-12-07T07:21:53;101766.91;;;4.00;100.00
41862;BME280;27537;57.134;-2.136;2022-12-07T07:24:20;101766.03;;;3.93;100.00
41862;BME280;27537;57.134;-2.136;2022-12-07T07:26:46;101750.38;;;3.76;100.00
41862;BME280;27537;57.134;-2.136;2022-12-07T07:29:13;101741.69;;;3.70;100.00
41862;BME280;27537;57.134;-2.136;2022-12-07T07:31:40;101751.19;;;3.69;100.00
41862;BME280;27537;57.134;-2.136;2022-12-07T07:34:07;101735.66;;;3.71;100.00
41862;BME280;27537;57.134;-2.136;2022-12-07T07:36:34;101720.84;;;3.53;100.00
41862;BME280;27537;57.134;-2.136;2022-12-07T07:39:14;101728.47;;;3.36;100.00
41862;BME280;27537;57.134;-2.136;2022-12-07T07:41:55;101675.69;;;3.12;100.00
41862;BME280;27537;57.134;-2.136;2022-12-07T07:44:36;101743.28;;;3.52;100.00
41862;BME280;27537;57.134;-2.136;2022-12-07T07:47:16;101740.53;;;3.32;100.00
41862;BME280;27537;57.134;-2.136;2022-12-07T07:49:57;101665.16;;;2.91;100.00
41862;BME280;27537;57.134;-2.136;2022-12-07T07:52:38;101739.78;;;3.49;100.00
41862;BME280;27537;57.134;-2.136;2022-12-07T07:55:19;101702.63;;;3.37;100.00
41862;BME280;27537;57.134;-2.136;2022-12-07T07:58:00;101674.81;;;3.13;100.00
41862;BME280;27537;57.134;-2.136;2022-12-07T08:00:41;101673.19;;;3.25;100.00
41862;BME280;27537;57.134;-2.136;2022-12-07T08:03:21;101663.81;;;3.42;100.00
41862;BME280;27537;57.134;-2.136;2022-12-07T08:06:03;101736.56;;;3.77;100.00
41862;BME280;27537;57.134;-2.136;2022-12-07T08:08:30;101700.94;;;3.42;100.00
41862;BME280;27537;57.134;-2.136;2022-12-07T08:11:11;101674.97;;;3.33;100.00
41862;BME280;27537;57.134;-2.136;2022-12-07T08:13:52;101700.09;;;3.48;100.00
41862;BME280;27537;57.134;-2.136;2022-12-07T08:16:32;101738.19;;;3.65;100.00
41862;BME280;27537;57.134;-2.136;2022-12-07T08:19:13;101674.09;;;3.33;100.00
41862;BME280;27537;57.134;-2.136;2022-12-07T08:21:55;101714.97;;;3.74;100.00
41862;BME280;27537;57.134;-2.136;2022-12-07T08:24:36;101739.31;;;4.05;100.00
41862;BME280;27537;57.134;-2.136;2022-12-07T08:27:08;101707.19;;;3.78;100.00
41862;BME280;27537;57.134;-2.136;2022-12-07T08:29:48;101708.03;;;3.71;100.00
41862;BME280;27537;57.134;-2.136;2022-12-07T08:32:29;101719.34;;;3.87;100.00
41862;BME280;27537;57.134;-2.136;2022-12-07T08:35:09;101705.41;;;3.70;100.00
41862;BME280;27537;57.134;-2.136;2022-12-07T08:37:50;101646.44;;;3.24;100.00
41862;BME280;27537;57.134;-2.136;2022-12-07T08:40:21;101706.28;;;3.69;100.00
41862;BME280;27537;57.134;-2.136;2022-12-07T08:43:02;101703.72;;;3.70;100.00
41862;BME280;27537;57.134;-2.136;2022-12-07T08:45:42;101632.69;;;3.34;100.00
41862;BME280;27537;57.134;-2.136;2022-12-07T08:48:23;101658.75;;;3.60;100.00
41862;BME280;27537;57.134;-2.136;2022-12-07T08:51:05;101684.69;;;3.70;100.00
41862;BME280;27537;57.134;-2.136;2022-12-07T08:53:41;101663.00;;;3.48;100.00
41862;BME280;27537;57.134;-2.136;2022-12-07T08:56:21;101661.16;;;3.33;100.00
41862;BME280;27537;57.134;-2.136;2022-12-07T08:58:58;101660.34;;;3.41;100.00
41862;BME280;27537;57.134;-2.136;2022-12-07T09:01:25;101636.97;;;3.29;100.00
41862;BME280;27537;57.134;-2.136;2022-12-07T09:04:06;101657.78;;;3.45;100.00
41862;BME280;27537;57.134;-2.136;2022-12-07T09:06:47;101668.19;;;3.52;100.00
41862;BME280;27537;57.134;-2.136;2022-12-07T09:09:27;101650.00;;;3.40;100.00
41862;BME280;27537;57.134;-2.136;2022-12-07T09:11:57;101613.59;;;3.15;100.00
41862;BME280;27537;57.134;-2.136;2022-12-07T09:14:37;101650.91;;;3.44;100.00
41862;BME280;27537;57.134;-2.136;2022-12-07T09:17:07;101629.13;;;3.18;100.00
41862;BME280;27537;57.134;-2.136;2022-12-07T09:19:35;101605.81;;;3.12;100.00
41862;BME280;27537;57.134;-2.136;2022-12-07T09:22:05;101601.44;;;3.05;100.00
41862;BME280;27537;57.134;-2.136;2022-12-07T09:24:37;101601.53;;;3.22;100.00
41862;BME280;27537;57.134;-2.136;2022-12-07T09:27:05;101676.03;;;3.63;100.00
41862;BME280;27537;57.134;-2.136;2022-12-07T09:29:33;101661.19;;;3.36;100.00
41862;BME280;27537;57.134;-2.136;2022-12-07T09:32:00;101601.44;;;3.03;100.00
41862;BME280;27537;57.134;-2.136;2022-12-07T09:34:41;101682.00;;;3.53;100.00
41862;BME280;27537;57.134;-2.136;2022-12-07T09:37:09;101628.25;;;3.15;100.00
41862;BME280;27537;57.134;-2.136;2022-12-07T09:39:40;101623.88;;;3.09;100.00
41862;BME280;27537;57.134;-2.136;2022-12-07T09:42:32;101656.03;;;3.40;100.00
41862;BME280;27537;57.134;-2.136;2022-12-07T09:44:59;101627.56;;;3.42;100.00
41862;BME280;27537;57.134;-2.136;2022-12-07T09:47:40;101669.13;;;3.62;100.00
41862;BME280;27537;57.134;-2.136;2022-12-07T09:50:16;101640.53;;;3.47;100.00
41862;BME280;27537;57.134;-2.136;2022-12-07T09:52:44;101664.81;;;3.66;100.00
41862;BME280;27537;57.134;-2.136;2022-12-07T09:55:19;101631.97;;;3.57;100.00
41862;BME280;27537;57.134;-2.136;2022-12-07T09:57:46;101660.59;;;3.82;100.00
41862;BME280;27537;57.134;-2.136;2022-12-07T10:00:20;101621.66;;;3.66;100.00
41862;BME280;27537;57.134;-2.136;2022-12-07T10:02:59;101663.28;;;4.02;100.00
41862;BME280;27537;57.134;-2.136;2022-12-07T10:05:37;101611.41;;;3.86;100.00
41862;BME280;27537;57.134;-2.136;2022-12-07T10:08:08;101674.59;;;4.24;100.00
41862;BME280;27537;57.134;-2.136;2022-12-07T10:10:39;101650.47;;;4.43;100.00
41862;BME280;27537;57.134;-2.136;2022-12-07T10:13:12;101653.06;;;4.43;100.00
41862;BME280;27537;57.134;-2.136;2022-12-07T10:20:47;101640.00;;;4.11;100.00
41862;BME280;27537;57.134;-2.136;2022-12-07T10:23:17;101641.75;;;4.21;100.00
41862;BME280;27537;57.134;-2.136;2022-12-07T10:25:45;101626.16;;;4.09;100.00
41862;BME280;27537;57.134;-2.136;2022-12-07T10:28:18;101617.50;;;4.08;100.00
41862;BME280;27537;57.134;-2.136;2022-12-07T10:31:01;101644.38;;;4.36;100.00
41862;BME280;27537;57.134;-2.136;2022-12-07T10:33:38;101627.94;;;4.24;100.00
41862;BME280;27537;57.134;-2.136;2022-12-07T10:38:50;101602.69;;;3.75;100.00
41862;BME280;27537;57.134;-2.136;2022-12-07T10:41:31;101643.41;;;3.97;100.00
41862;BME280;27537;57.134;-2.136;2022-12-07T10:44:21;101615.81;;;4.13;100.00
41862;BME280;27537;57.134;-2.136;2022-12-07T10:58:35;101557.06;;;4.15;100.00
41862;BME280;27537;57.134;-2.136;2022-12-07T11:01:25;101597.72;;;4.40;100.00
41862;BME280;27537;57.134;-2.136;2022-12-07T11:04:43;101592.53;;;4.35;100.00
41862;BME280;27537;57.134;-2.136;2022-12-07T11:10:15;101588.16;;;4.23;100.00
41862;BME280;27537;57.134;-2.136;2022-12-07T11:16:04;101538.06;;;4.13;100.00
41862;BME280;27537;57.134;-2.136;2022-12-07T11:25:00;101506.06;;;4.08;100.00
41862;BME280;27537;57.134;-2.136;2022-12-07T11:30:16;101547.59;;;4.51;100.00
41862;BME280;27537;57.134;-2.136;2022-12-07T11:35:44;101534.63;;;4.34;100.00
41862;BME280;27537;57.134;-2.136;2022-12-07T11:38:17;101508.69;;;4.25;100.00
41862;BME280;27537;57.134;-2.136;2022-12-07T11:40:53;101476.72;;;4.11;100.00
41862;BME280;27537;57.134;-2.136;2022-12-07T11:43:28;101542.41;;;4.47;100.00
41862;BME280;27537;57.134;-2.136;2022-12-07T11:46:05;101516.47;;;4.34;100.00
41862;BME280;27537;57.134;-2.136;2022-12-07T11:48:41;101468.06;;;4.06;100.00
41862;BME280;27537;57.134;-2.136;2022-12-07T11:51:13;101449.06;;;4.02;100.00
41862;BME280;27537;57.134;-2.136;2022-12-07T11:53:53;101499.19;;;4.60;100.00
41862;BME280;27537;57.134;-2.136;2022-12-07T11:56:27;101499.19;;;4.56;100.00
41862;BME280;27537;57.134;-2.136;2022-12-07T11:58:57;101473.28;;;4.53;100.00
41862;BME280;27537;57.134;-2.136;2022-12-07T12:06:44;101447.31;;;4.66;100.00
41862;BME280;27537;57.134;-2.136;2022-12-07T12:09:15;101459.41;;;4.59;100.00
41862;BME280;27537;57.134;-2.136;2022-12-07T12:20:51;101430.91;;;4.61;100.00
41862;BME280;27537;57.134;-2.136;2022-12-07T12:25:58;101437.78;;;4.66;100.00
41862;BME280;27537;57.134;-2.136;2022-12-07T12:28:30;101489.56;;;5.09;100.00
41862;BME280;27537;57.134;-2.136;2022-12-07T12:31:15;101482.66;;;5.13;100.00
41862;BME280;27537;57.134;-2.136;2022-12-07T12:33:46;101488.75;;;4.98;100.00
41862;BME280;27537;57.134;-2.136;2022-12-07T12:53:01;101407.53;;;4.54;100.00
41862;BME280;27537;57.134;-2.136;2022-12-07T13:00:45;101452.41;;;4.93;100.00
41862;BME280;27537;57.134;-2.136;2022-12-07T13:03:30;101439.50;;;4.73;100.00
41862;BME280;27537;57.134;-2.136;2022-12-07T13:06:19;101435.19;;;4.79;100.00
41862;BME280;27537;57.134;-2.136;2022-12-07T13:08:46;101434.16;;;5.15;100.00
41862;BME280;27537;57.134;-2.136;2022-12-07T13:11:34;101437.66;;;5.14;100.00
41862;BME280;27537;57.134;-2.136;2022-12-07T13:17:10;101444.59;;;5.09;100.00
41862;BME280;27537;57.134;-2.136;2022-12-07T13:25:05;101434.28;;;4.84;100.00
41862;BME280;27537;57.134;-2.136;2022-12-07T13:27:37;101439.50;;;4.78;100.00
41862;BME280;27537;57.134;-2.136;2022-12-07T13:30:17;101443.00;;;4.52;100.00
41862;BME280;27537;57.134;-2.136;2022-12-07T13:32:55;101449.06;;;4.31;100.00
41862;BME280;27537;57.134;-2.136;2022-12-07T13:37:55;101439.56;;;4.38;100.00
41862;BME280;27537;57.134;-2.136;2022-12-07T13:40:23;101411.06;;;4.29;100.00
41862;BME280;27537;57.134;-2.136;2022-12-07T13:42:58;101419.69;;;4.26;100.00
41862;BME280;27537;57.134;-2.136;2022-12-07T13:45:31;101400.69;;;4.01;100.00
41862;BME280;27537;57.134;-2.136;2022-12-07T13:48:27;101412.78;;;4.21;100.00
41862;BME280;27537;57.134;-2.136;2022-12-07T13:50:58;101402.41;;;3.94;100.00
41862;BME280;27537;57.134;-2.136;2022-12-07T13:53:25;101362.66;;;3.68;100.00
41862;BME280;27537;57.134;-2.136;2022-12-07T13:55:57;101407.59;;;4.19;100.00
41862;BME280;27537;57.134;-2.136;2022-12-07T13:58:26;101401.50;;;4.52;100.00
41862;BME280;27537;57.134;-2.136;2022-12-07T14:00:53;101376.44;;;4.48;100.00
41862;BME280;27537;57.134;-2.136;2022-12-07T14:03:28;101383.41;;;4.05;100.00
41862;BME280;27537;57.134;-2.136;2022-12-07T14:06:19;101386.88;;;4.02;100.00
41862;BME280;27537;57.134;-2.136;2022-12-07T14:08:47;101382.56;;;4.07;100.00
41862;BME280;27537;57.134;-2.136;2022-12-07T14:11:19;101376.47;;;4.19;100.00
41862;BME280;27537;57.134;-2.136;2022-12-07T14:13:51;101384.28;;;4.01;100.00
41862;BME280;27537;57.134;-2.136;2022-12-07T14:16:31;101384.25;;;4.30;100.00
41862;BME280;27537;57.134;-2.136;2022-12-07T14:19:02;101366.13;;;3.99;100.00
41862;BME280;27537;57.134;-2.136;2022-12-07T14:21:37;101365.22;;;4.42;100.00
41862;BME280;27537;57.134;-2.136;2022-12-07T14:24:19;101387.69;;;4.44;100.00
41862;BME280;27537;57.134;-2.136;2022-12-07T14:26:50;101341.06;;;4.21;100.00
41862;BME280;27537;57.134;-2.136;2022-12-07T14:31:52;101362.63;;;4.35;100.00
41862;BME280;27537;57.134;-2.136;2022-12-07T14:34:23;101348.00;;;4.14;100.00
41862;BME280;27537;57.134;-2.136;2022-12-07T14:36:51;101342.81;;;3.84;100.00
41862;BME280;27537;57.134;-2.136;2022-12-07T14:39:23;101343.69;;;3.81;100.00
41862;BME280;27537;57.134;-2.136;2022-12-07T14:41:59;101286.69;;;3.38;100.00
41862;BME280;27537;57.134;-2.136;2022-12-07T14:44:26;101303.09;;;3.37;100.00
41862;BME280;27537;57.134;-2.136;2022-12-07T14:47:01;101348.00;;;3.70;100.00
41862;BME280;27537;57.134;-2.136;2022-12-07T14:49:56;101291.88;;;3.41;100.00
41862;BME280;27537;57.134;-2.136;2022-12-07T14:52:30;101329.03;;;3.75;100.00
41862;BME280;27537;57.134;-2.136;2022-12-07T14:57:51;101345.41;;;3.84;100.00
41862;BME280;27537;57.134;-2.136;2022-12-07T15:00:24;101327.25;;;3.56;100.00
41862;BME280;27537;57.134;-2.136;2022-12-07T15:02:52;101320.38;;;3.59;100.00
41862;BME280;27537;57.134;-2.136;2022-12-07T15:05:20;101287.56;;;3.34;100.00
41862;BME280;27537;57.134;-2.136;2022-12-07T15:07:51;101316.00;;;3.31;100.00